sensor_id;sensor_type;location;lat;lon;timestamp;pressure;altitude;pressure_sealevel;temperature;humidity
66430;BME280;53242;51.694;10.006;2024-01-16T00:02:09;98338.22;;;1.11;83.87
66430;BME280;53242;51.694;10.006;2024-01-16T00:04:31;98343.09;;;1.06;83.54
66430;BME280;53242;51.694;10.006;2024-01-16T00:06:54;98346.19;;;1.10;83.48
66430;BME280;53242;51.694;10.006;2024-01-16T00:09:16;98350.72;;;1.08;83.37
66430;BME280;53242;51.694;10.006;2024-01-16T00:11:42;98353.31;;;1.08;82.94
66430;BME280;53242;51.694;10.006;2024-01-16T00:14:05;98360.16;;;1.17;82.75
66430;BME280;53242;51.694;10.006;2024-01-16T00:16:27;98357.88;;;1.14;82.99
66430;BME280;53242;51.694;10.006;2024-01-16T00:18:49;98360.66;;;1.21;82.81
66430;BME280;53242;51.694;10.006;2024-01-16T00:21:12;98364.72;;;1.23;82.27
66430;BME280;53242;51.694;10.006;2024-01-16T00:23:34;98367.94;;;1.17;82.96
66430;BME280;53242;51.694;10.006;2024-01-16T00:25:57;98376.06;;;1.14;82.59
66430;BME280;53242;51.694;10.006;2024-01-16T00:28:19;98376.88;;;1.14;82.89
66430;BME280;53242;51.694;10.006;2024-01-16T00:30:42;98376.72;;;1.08;82.89
66430;BME280;53242;51.694;10.006;2024-01-16T00:33:04;98380.28;;;1.07;83.52
66430;BME280;53242;51.694;10.006;2024-01-16T00:35:26;98385.97;;;1.10;82.91
66430;BME280;53242;51.694;10.006;2024-01-16T00:37:49;98387.94;;;1.17;82.91
66430;BME280;53242;51.694;10.006;2024-01-16T00:40:11;98397.03;;;1.12;83.46
66430;BME280;53242;51.694;10.006;2024-01-16T00:42:34;98394.94;;;1.16;83.32
66430;BME280;53242;51.694;10.006;2024-01-16T00:44:56;98404.03;;;1.20;83.65
66430;BME280;53242;51.694;10.006;2024-01-16T00:47:18;98403.53;;;1.17;84.13
66430;BME280;53242;51.694;10.006;2024-01-16T00:49:41;98407.91;;;1.08;84.38
66430;BME280;53242;51.694;10.006;2024-01-16T00:52:03;98416.19;;;1.03;84.84
66430;BME280;53242;51.694;10.006;2024-01-16T00:54:26;98419.13;;;1.08;84.32
66430;BME280;53242;51.694;10.006;2024-01-16T00:56:48;98423.53;;;1.16;83.08
66430;BME280;53242;51.694;10.006;2024-01-16T00:59:11;98432.25;;;1.07;83.58
66430;BME280;53242;51.694;10.006;2024-01-16T01:01:37;98435.84;;;1.14;81.94
66430;BME280;53242;51.694;10.006;2024-01-16T01:03:59;98434.22;;;1.13;81.29
66430;BME280;53242;51.694;10.006;2024-01-16T01:06:21;98431.94;;;1.10;81.21
66430;BME280;53242;51.694;10.006;2024-01-16T01:08:44;98428.53;;;1.09;80.86
66430;BME280;53242;51.694;10.006;2024-01-16T01:11:06;98430.63;;;0.97;80.79
66430;BME280;53242;51.694;10.006;2024-01-16T01:13:29;98422.81;;;0.97;80.25
66430;BME280;53242;51.694;10.006;2024-01-16T01:15:51;98432.06;;;0.92;79.49
66430;BME280;53242;51.694;10.006;2024-01-16T01:18:14;98441.47;;;0.85;79.68
66430;BME280;53242;51.694;10.006;2024-01-16T01:20:36;98439.53;;;0.95;79.40
66430;BME280;53242;51.694;10.006;2024-01-16T01:23:01;98443.59;;;0.89;79.46
66430;BME280;53242;51.694;10.006;2024-01-16T01:25:24;98450.09;;;0.85;79.86
66430;BME280;53242;51.694;10.006;2024-01-16T01:27:48;98452.69;;;0.85;79.84
66430;BME280;53242;51.694;10.006;2024-01-16T01:30:10;98447.44;;;0.77;80.27
66430;BME280;53242;51.694;10.006;2024-01-16T01:32:33;98455.56;;;0.74;80.32
66430;BME280;53242;51.694;10.006;2024-01-16T01:34:55;98457.47;;;0.72;80.28
66430;BME280;53242;51.694;10.006;2024-01-16T01:37:18;98446.81;;;0.75;80.67
66430;BME280;53242;51.694;10.006;2024-01-16T01:39:40;98463.97;;;0.68;81.06
66430;BME280;53242;51.694;10.006;2024-01-16T01:42:03;98443.47;;;0.56;83.25
66430;BME280;53242;51.694;10.006;2024-01-16T01:44:25;98446.19;;;0.46;84.13
66430;BME280;53242;51.694;10.006;2024-01-16T01:46:48;98451.09;;;0.58;85.05
66430;BME280;53242;51.694;10.006;2024-01-16T01:49:13;98457.41;;;0.55;86.70
66430;BME280;53242;51.694;10.006;2024-01-16T01:51:35;98466.63;;;0.41;86.75
66430;BME280;53242;51.694;10.006;2024-01-16T01:53:58;98463.09;;;0.51;88.37
66430;BME280;53242;51.694;10.006;2024-01-16T01:56:21;98465.78;;;0.41;87.87
66430;BME280;53242;51.694;10.006;2024-01-16T01:58:46;98472.94;;;0.39;88.51
66430;BME280;53242;51.694;10.006;2024-01-16T02:01:10;98472.00;;;0.48;88.76
66430;BME280;53242;51.694;10.006;2024-01-16T02:03:39;98478.34;;;0.54;88.08
66430;BME280;53242;51.694;10.006;2024-01-16T02:06:02;98490.53;;;0.53;88.04
66430;BME280;53242;51.694;10.006;2024-01-16T02:08:25;98486.44;;;0.51;87.41
66430;BME280;53242;51.694;10.006;2024-01-16T02:10:49;98490.19;;;0.56;86.10
66430;BME280;53242;51.694;10.006;2024-01-16T02:13:12;98492.00;;;0.56;85.70
66430;BME280;53242;51.694;10.006;2024-01-16T02:15:34;98488.91;;;0.60;85.29
66430;BME280;53242;51.694;10.006;2024-01-16T02:17:57;98486.31;;;0.60;85.22
66430;BME280;53242;51.694;10.006;2024-01-16T02:20:19;98484.84;;;0.58;84.85
66430;BME280;53242;51.694;10.006;2024-01-16T02:22:45;98491.25;;;0.72;83.44
66430;BME280;53242;51.694;10.006;2024-01-16T02:25:10;98495.81;;;0.70;83.67
66430;BME280;53242;51.694;10.006;2024-01-16T02:27:32;98499.19;;;0.70;83.02
66430;BME280;53242;51.694;10.006;2024-01-16T02:29:55;98497.22;;;0.64;83.41
66430;BME280;53242;51.694;10.006;2024-01-16T02:32:17;98504.38;;;0.62;83.30
66430;BME280;53242;51.694;10.006;2024-01-16T02:34:40;98504.50;;;0.60;82.73
66430;BME280;53242;51.694;10.006;2024-01-16T02:37:02;98520.91;;;0.61;81.11
66430;BME280;53242;51.694;10.006;2024-01-16T02:39:25;98515.41;;;0.64;80.04
66430;BME280;53242;51.694;10.006;2024-01-16T02:41:47;98520.94;;;0.69;79.57
66430;BME280;53242;51.694;10.006;2024-01-16T02:44:09;98523.38;;;0.71;79.21
66430;BME280;53242;51.694;10.006;2024-01-16T02:46:32;98520.16;;;0.77;78.22
66430;BME280;53242;51.694;10.006;2024-01-16T02:48:54;98529.56;;;0.70;79.10
66430;BME280;53242;51.694;10.006;2024-01-16T02:51:18;98527.31;;;0.75;79.34
66430;BME280;53242;51.694;10.006;2024-01-16T02:53:40;98536.34;;;0.71;79.45
66430;BME280;53242;51.694;10.006;2024-01-16T02:56:02;98538.34;;;0.77;78.76
66430;BME280;53242;51.694;10.006;2024-01-16T02:58:29;98548.13;;;0.83;78.04
66430;BME280;53242;51.694;10.006;2024-01-16T03:00:51;98551.53;;;0.84;76.80
66430;BME280;53242;51.694;10.006;2024-01-16T03:03:14;98549.56;;;0.77;76.87
66430;BME280;53242;51.694;10.006;2024-01-16T03:05:37;98556.16;;;0.72;77.06
66430;BME280;53242;51.694;10.006;2024-01-16T03:07:59;98557.47;;;0.76;75.46
66430;BME280;53242;51.694;10.006;2024-01-16T03:10:22;98564.31;;;0.77;74.81
66430;BME280;53242;51.694;10.006;2024-01-16T03:12:45;98566.38;;;0.65;75.78
66430;BME280;53242;51.694;10.006;2024-01-16T03:15:07;98570.59;;;0.66;76.03
66430;BME280;53242;51.694;10.006;2024-01-16T03:17:30;98572.84;;;0.61;76.27
66430;BME280;53242;51.694;10.006;2024-01-16T03:19:54;98582.09;;;0.63;76.42
66430;BME280;53242;51.694;10.006;2024-01-16T03:22:17;98582.72;;;0.57;76.62
66430;BME280;53242;51.694;10.006;2024-01-16T03:24:40;98577.53;;;0.57;76.27
66430;BME280;53242;51.694;10.006;2024-01-16T03:27:03;98576.41;;;0.60;76.31
66430;BME280;53242;51.694;10.006;2024-01-16T03:29:26;98578.13;;;0.51;77.17
66430;BME280;53242;51.694;10.006;2024-01-16T03:31:48;98577.84;;;0.54;77.01
66430;BME280;53242;51.694;10.006;2024-01-16T03:34:11;98584.44;;;0.48;77.46
66430;BME280;53242;51.694;10.006;2024-01-16T03:36:33;98586.94;;;0.58;77.68
66430;BME280;53242;51.694;10.006;2024-01-16T03:38:56;98579.75;;;0.52;78.21
66430;BME280;53242;51.694;10.006;2024-01-16T03:41:18;98588.50;;;0.51;78.48
66430;BME280;53242;51.694;10.006;2024-01-16T03:43:41;98586.34;;;0.64;78.15
66430;BME280;53242;51.694;10.006;2024-01-16T03:46:03;98580.78;;;0.59;78.75
66430;BME280;53242;51.694;10.006;2024-01-16T03:48:25;98582.41;;;0.60;79.09
66430;BME280;53242;51.694;10.006;2024-01-16T03:50:48;98575.63;;;0.68;79.03
66430;BME280;53242;51.694;10.006;2024-01-16T03:53:10;98587.94;;;0.65;79.64
66430;BME280;53242;51.694;10.006;2024-01-16T03:55:33;98589.06;;;0.63;79.98
66430;BME280;53242;51.694;10.006;2024-01-16T03:57:55;98591.19;;;0.59;80.31
66430;BME280;53242;51.694;10.006;2024-01-16T04:00:18;98594.72;;;0.58;80.78
66430;BME280;53242;51.694;10.006;2024-01-16T04:02:40;98603.16;;;0.60;80.67
66430;BME280;53242;51.694;10.006;2024-01-16T04:05:02;98606.13;;;0.65;80.70
66430;BME280;53242;51.694;10.006;2024-01-16T04:07:25;98600.88;;;0.57;81.07
66430;BME280;53242;51.694;10.006;2024-01-16T04:09:48;98601.84;;;0.56;80.98
66430;BME280;53242;51.694;10.006;2024-01-16T04:12:11;98602.97;;;0.54;81.03
66430;BME280;53242;51.694;10.006;2024-01-16T04:14:33;98599.94;;;0.58;81.06
66430;BME280;53242;51.694;10.006;2024-01-16T04:16:56;98597.78;;;0.54;80.86
66430;BME280;53242;51.694;10.006;2024-01-16T04:19:18;98605.72;;;0.52;80.74
66430;BME280;53242;51.694;10.006;2024-01-16T04:21:41;98607.34;;;0.53;80.95
66430;BME280;53242;51.694;10.006;2024-01-16T04:24:03;98608.69;;;0.57;80.65
66430;BME280;53242;51.694;10.006;2024-01-16T04:26:26;98618.53;;;0.54;80.77
66430;BME280;53242;51.694;10.006;2024-01-16T04:28:48;98614.84;;;0.56;80.70
66430;BME280;53242;51.694;10.006;2024-01-16T04:31:10;98608.34;;;0.60;80.55
66430;BME280;53242;51.694;10.006;2024-01-16T04:33:35;98619.97;;;0.48;80.74
66430;BME280;53242;51.694;10.006;2024-01-16T04:35:58;98614.19;;;0.54;80.58
66430;BME280;53242;51.694;10.006;2024-01-16T04:38:20;98610.84;;;0.62;80.64
66430;BME280;53242;51.694;10.006;2024-01-16T04:40:42;98616.97;;;0.61;80.66
66430;BME280;53242;51.694;10.006;2024-01-16T04:43:05;98614.66;;;0.58;80.80
66430;BME280;53242;51.694;10.006;2024-01-16T04:45:27;98616.47;;;0.57;80.98
66430;BME280;53242;51.694;10.006;2024-01-16T04:47:50;98624.94;;;0.59;80.61
66430;BME280;53242;51.694;10.006;2024-01-16T04:50:12;98632.84;;;0.58;80.81
66430;BME280;53242;51.694;10.006;2024-01-16T04:52:34;98630.78;;;0.61;80.68
66430;BME280;53242;51.694;10.006;2024-01-16T04:54:57;98634.41;;;0.69;80.42
66430;BME280;53242;51.694;10.006;2024-01-16T04:57:19;98630.94;;;0.60;80.86
66430;BME280;53242;51.694;10.006;2024-01-16T04:59:42;98628.66;;;0.57;81.36
66430;BME280;53242;51.694;10.006;2024-01-16T05:02:05;98627.41;;;0.69;80.85
66430;BME280;53242;51.694;10.006;2024-01-16T05:04:27;98623.34;;;0.67;81.05
66430;BME280;53242;51.694;10.006;2024-01-16T05:06:51;98628.00;;;0.63;80.59
66430;BME280;53242;51.694;10.006;2024-01-16T05:09:14;98620.09;;;0.64;80.65
66430;BME280;53242;51.694;10.006;2024-01-16T05:11:36;98623.69;;;0.72;80.33
66430;BME280;53242;51.694;10.006;2024-01-16T05:13:58;98629.72;;;0.72;80.11
66430;BME280;53242;51.694;10.006;2024-01-16T05:16:21;98629.50;;;0.65;80.16
66430;BME280;53242;51.694;10.006;2024-01-16T05:18:43;98626.44;;;0.70;79.92
66430;BME280;53242;51.694;10.006;2024-01-16T05:21:06;98624.09;;;0.59;80.80
66430;BME280;53242;51.694;10.006;2024-01-16T05:23:29;98622.78;;;0.55;80.52
66430;BME280;53242;51.694;10.006;2024-01-16T05:25:51;98617.94;;;0.60;80.83
66430;BME280;53242;51.694;10.006;2024-01-16T05:28:14;98622.84;;;0.45;81.15
66430;BME280;53242;51.694;10.006;2024-01-16T05:30:36;98633.25;;;0.45;81.03
66430;BME280;53242;51.694;10.006;2024-01-16T05:32:59;98618.19;;;0.48;80.69
66430;BME280;53242;51.694;10.006;2024-01-16T05:35:23;98617.03;;;0.43;80.73
66430;BME280;53242;51.694;10.006;2024-01-16T05:37:46;98613.81;;;0.49;80.71
66430;BME280;53242;51.694;10.006;2024-01-16T05:40:09;98620.41;;;0.43;80.85
66430;BME280;53242;51.694;10.006;2024-01-16T05:42:32;98620.94;;;0.47;81.56
66430;BME280;53242;51.694;10.006;2024-01-16T05:44:54;98625.09;;;0.40;81.90
66430;BME280;53242;51.694;10.006;2024-01-16T05:47:16;98619.31;;;0.46;81.93
66430;BME280;53242;51.694;10.006;2024-01-16T05:49:39;98620.69;;;0.58;81.86
66430;BME280;53242;51.694;10.006;2024-01-16T05:52:01;98625.00;;;0.49;82.19
66430;BME280;53242;51.694;10.006;2024-01-16T05:54:24;98621.75;;;0.47;81.91
66430;BME280;53242;51.694;10.006;2024-01-16T05:56:46;98620.56;;;0.42;82.63
66430;BME280;53242;51.694;10.006;2024-01-16T05:59:08;98626.19;;;0.55;82.96
66430;BME280;53242;51.694;10.006;2024-01-16T06:01:31;98620.22;;;0.37;84.02
66430;BME280;53242;51.694;10.006;2024-01-16T06:03:53;98621.53;;;0.41;83.50
66430;BME280;53242;51.694;10.006;2024-01-16T06:06:16;98628.16;;;0.35;84.07
66430;BME280;53242;51.694;10.006;2024-01-16T06:08:38;98628.06;;;0.27;84.52
66430;BME280;53242;51.694;10.006;2024-01-16T06:11:01;98627.25;;;0.26;84.02
66430;BME280;53242;51.694;10.006;2024-01-16T06:13:23;98630.38;;;0.30;84.28
66430;BME280;53242;51.694;10.006;2024-01-16T06:15:45;98630.75;;;0.35;84.19
66430;BME280;53242;51.694;10.006;2024-01-16T06:18:08;98626.47;;;0.26;84.12
66430;BME280;53242;51.694;10.006;2024-01-16T06:20:31;98631.72;;;0.16;84.44
66430;BME280;53242;51.694;10.006;2024-01-16T06:22:54;98638.97;;;0.30;84.23
66430;BME280;53242;51.694;10.006;2024-01-16T06:25:16;98634.47;;;0.32;84.40
66430;BME280;53242;51.694;10.006;2024-01-16T06:27:40;98632.03;;;0.31;83.93
66430;BME280;53242;51.694;10.006;2024-01-16T06:30:03;98634.81;;;0.38;83.38
66430;BME280;53242;51.694;10.006;2024-01-16T06:32:26;98630.91;;;0.34;83.65
66430;BME280;53242;51.694;10.006;2024-01-16T06:34:48;98627.25;;;0.44;83.00
66430;BME280;53242;51.694;10.006;2024-01-16T06:37:10;98625.59;;;0.43;83.46
66430;BME280;53242;51.694;10.006;2024-01-16T06:39:33;98624.66;;;0.44;83.29
66430;BME280;53242;51.694;10.006;2024-01-16T06:41:55;98626.13;;;0.47;83.26
66430;BME280;53242;51.694;10.006;2024-01-16T06:44:18;98630.28;;;0.40;83.71
66430;BME280;53242;51.694;10.006;2024-01-16T06:46:41;98633.72;;;0.40;83.67
66430;BME280;53242;51.694;10.006;2024-01-16T06:49:03;98634.66;;;0.39;84.17
66430;BME280;53242;51.694;10.006;2024-01-16T06:51:25;98640.66;;;0.40;84.58
66430;BME280;53242;51.694;10.006;2024-01-16T06:53:48;98632.38;;;0.36;85.51
66430;BME280;53242;51.694;10.006;2024-01-16T06:56:10;98635.22;;;0.25;86.64
66430;BME280;53242;51.694;10.006;2024-01-16T06:58:33;98645.66;;;0.33;86.79
66430;BME280;53242;51.694;10.006;2024-01-16T07:00:55;98642.03;;;0.26;88.32
66430;BME280;53242;51.694;10.006;2024-01-16T07:03:18;98646.97;;;0.37;88.08
66430;BME280;53242;51.694;10.006;2024-01-16T07:05:40;98648.03;;;0.26;87.96
66430;BME280;53242;51.694;10.006;2024-01-16T07:08:04;98647.44;;;0.32;88.25
66430;BME280;53242;51.694;10.006;2024-01-16T07:10:27;98650.69;;;0.35;88.18
66430;BME280;53242;51.694;10.006;2024-01-16T07:12:49;98656.63;;;0.27;89.16
66430;BME280;53242;51.694;10.006;2024-01-16T07:15:13;98658.78;;;0.31;89.19
66430;BME280;53242;51.694;10.006;2024-01-16T07:17:36;98658.25;;;0.28;89.92
66430;BME280;53242;51.694;10.006;2024-01-16T07:19:58;98655.59;;;0.38;89.76
66430;BME280;53242;51.694;10.006;2024-01-16T07:22:21;98660.31;;;0.42;89.48
66430;BME280;53242;51.694;10.006;2024-01-16T07:24:43;98657.81;;;0.32;89.75
66430;BME280;53242;51.694;10.006;2024-01-16T07:27:05;98654.25;;;0.34;89.46
66430;BME280;53242;51.694;10.006;2024-01-16T07:29:28;98652.41;;;0.26;90.31
66430;BME280;53242;51.694;10.006;2024-01-16T07:31:50;98660.47;;;0.41;89.68
66430;BME280;53242;51.694;10.006;2024-01-16T07:34:13;98663.59;;;0.44;89.59
66430;BME280;53242;51.694;10.006;2024-01-16T07:36:39;98663.66;;;0.35;89.74
66430;BME280;53242;51.694;10.006;2024-01-16T07:39:01;98667.16;;;0.43;89.62
66430;BME280;53242;51.694;10.006;2024-01-16T07:41:24;98671.91;;;0.48;89.16
66430;BME280;53242;51.694;10.006;2024-01-16T07:43:46;98665.44;;;0.52;89.28
66430;BME280;53242;51.694;10.006;2024-01-16T07:46:09;98668.25;;;0.59;88.70
66430;BME280;53242;51.694;10.006;2024-01-16T07:48:31;98671.66;;;0.59;88.08
66430;BME280;53242;51.694;10.006;2024-01-16T07:50:53;98672.13;;;0.81;89.49
66430;BME280;53242;51.694;10.006;2024-01-16T07:53:16;98673.28;;;0.60;87.96
66430;BME280;53242;51.694;10.006;2024-01-16T07:55:38;98676.50;;;0.54;87.51
66430;BME280;53242;51.694;10.006;2024-01-16T07:58:01;98670.94;;;0.49;87.56
66430;BME280;53242;51.694;10.006;2024-01-16T08:00:26;98676.34;;;0.56;87.60
66430;BME280;53242;51.694;10.006;2024-01-16T08:02:49;98678.72;;;0.49;88.24
66430;BME280;53242;51.694;10.006;2024-01-16T08:05:12;98682.09;;;0.68;87.80
66430;BME280;53242;51.694;10.006;2024-01-16T08:07:35;98686.56;;;0.57;88.69
66430;BME280;53242;51.694;10.006;2024-01-16T08:09:57;98684.13;;;0.56;89.77
66430;BME280;53242;51.694;10.006;2024-01-16T08:12:19;98685.78;;;0.57;89.77
66430;BME280;53242;51.694;10.006;2024-01-16T08:14:42;98681.66;;;0.72;89.99
66430;BME280;53242;51.694;10.006;2024-01-16T08:17:06;98679.91;;;0.55;89.66
66430;BME280;53242;51.694;10.006;2024-01-16T08:19:29;98676.59;;;0.71;88.77
66430;BME280;53242;51.694;10.006;2024-01-16T08:21:51;98677.16;;;0.56;88.37
66430;BME280;53242;51.694;10.006;2024-01-16T08:24:14;98675.28;;;0.67;87.76
66430;BME280;53242;51.694;10.006;2024-01-16T08:26:36;98679.31;;;0.61;88.22
66430;BME280;53242;51.694;10.006;2024-01-16T08:28:59;98682.34;;;0.56;88.40
66430;BME280;53242;51.694;10.006;2024-01-16T08:31:21;98679.91;;;0.55;88.87
66430;BME280;53242;51.694;10.006;2024-01-16T08:33:43;98686.50;;;0.49;89.18
66430;BME280;53242;51.694;10.006;2024-01-16T08:36:06;98674.59;;;0.82;88.42
66430;BME280;53242;51.694;10.006;2024-01-16T08:38:28;98676.69;;;0.79;88.10
66430;BME280;53242;51.694;10.006;2024-01-16T08:40:51;98674.38;;;0.76;88.65
66430;BME280;53242;51.694;10.006;2024-01-16T08:43:13;98669.69;;;0.79;87.89
66430;BME280;53242;51.694;10.006;2024-01-16T08:45:35;98668.06;;;0.78;87.66
66430;BME280;53242;51.694;10.006;2024-01-16T08:47:58;98668.69;;;0.72;87.48
66430;BME280;53242;51.694;10.006;2024-01-16T08:50:21;98680.56;;;0.75;86.91
66430;BME280;53242;51.694;10.006;2024-01-16T08:52:44;98676.00;;;0.77;86.87
66430;BME280;53242;51.694;10.006;2024-01-16T08:55:07;98670.44;;;0.72;86.48
66430;BME280;53242;51.694;10.006;2024-01-16T08:57:31;98678.16;;;0.81;86.47
66430;BME280;53242;51.694;10.006;2024-01-16T08:59:53;98684.59;;;0.95;86.03
66430;BME280;53242;51.694;10.006;2024-01-16T09:02:15;98684.00;;;0.84;86.11
66430;BME280;53242;51.694;10.006;2024-01-16T09:04:38;98687.66;;;0.99;85.19
66430;BME280;53242;51.694;10.006;2024-01-16T09:07:00;98688.09;;;1.12;85.24
66430;BME280;53242;51.694;10.006;2024-01-16T09:09:23;98696.94;;;1.02;84.75
66430;BME280;53242;51.694;10.006;2024-01-16T09:11:45;98692.41;;;1.04;85.63
66430;BME280;53242;51.694;10.006;2024-01-16T09:14:07;98685.59;;;1.03;85.25
66430;BME280;53242;51.694;10.006;2024-01-16T09:16:31;98687.94;;;1.14;84.60
66430;BME280;53242;51.694;10.006;2024-01-16T09:18:53;98703.25;;;0.99;85.33
66430;BME280;53242;51.694;10.006;2024-01-16T09:21:17;98692.81;;;1.17;84.42
66430;BME280;53242;51.694;10.006;2024-01-16T09:23:39;98693.66;;;1.18;84.74
66430;BME280;53242;51.694;10.006;2024-01-16T09:26:01;98701.91;;;1.13;84.46
66430;BME280;53242;51.694;10.006;2024-01-16T09:28:24;98692.00;;;1.17;84.28
66430;BME280;53242;51.694;10.006;2024-01-16T09:30:46;98696.59;;;1.23;85.25
66430;BME280;53242;51.694;10.006;2024-01-16T09:33:09;98689.53;;;1.41;84.73
66430;BME280;53242;51.694;10.006;2024-01-16T09:35:32;98696.63;;;1.31;85.21
66430;BME280;53242;51.694;10.006;2024-01-16T09:37:55;98697.81;;;1.37;85.21
66430;BME280;53242;51.694;10.006;2024-01-16T09:40:17;98693.22;;;1.30;85.69
66430;BME280;53242;51.694;10.006;2024-01-16T09:42:40;98692.38;;;1.56;85.16
66430;BME280;53242;51.694;10.006;2024-01-16T09:45:06;98696.88;;;1.46;85.10
66430;BME280;53242;51.694;10.006;2024-01-16T09:47:30;98693.22;;;1.30;85.56
66430;BME280;53242;51.694;10.006;2024-01-16T09:49:57;98686.44;;;1.38;85.94
66430;BME280;53242;51.694;10.006;2024-01-16T09:52:19;98694.75;;;1.41;85.19
66430;BME280;53242;51.694;10.006;2024-01-16T09:54:42;98700.41;;;1.37;85.43
66430;BME280;53242;51.694;10.006;2024-01-16T09:57:06;98696.81;;;1.38;85.26
66430;BME280;53242;51.694;10.006;2024-01-16T09:59:30;98695.34;;;1.35;85.33
66430;BME280;53242;51.694;10.006;2024-01-16T10:01:54;98700.25;;;1.38;85.01
66430;BME280;53242;51.694;10.006;2024-01-16T10:04:17;98706.75;;;1.34;85.07
66430;BME280;53242;51.694;10.006;2024-01-16T10:06:41;98708.59;;;1.50;84.74
66430;BME280;53242;51.694;10.006;2024-01-16T10:09:06;98703.47;;;1.32;85.21
66430;BME280;53242;51.694;10.006;2024-01-16T10:11:29;98710.38;;;1.15;86.13
66430;BME280;53242;51.694;10.006;2024-01-16T10:13:51;98700.88;;;1.32;85.83
66430;BME280;53242;51.694;10.006;2024-01-16T10:16:14;98704.50;;;1.39;85.87
66430;BME280;53242;51.694;10.006;2024-01-16T10:18:36;98705.63;;;1.37;85.82
66430;BME280;53242;51.694;10.006;2024-01-16T10:21:00;98705.72;;;1.27;85.67
66430;BME280;53242;51.694;10.006;2024-01-16T10:23:26;98703.09;;;1.19;85.91
66430;BME280;53242;51.694;10.006;2024-01-16T10:28:29;98718.00;;;1.17;86.86
66430;BME280;53242;51.694;10.006;2024-01-16T10:31:01;98715.97;;;1.28;86.79
66430;BME280;53242;51.694;10.006;2024-01-16T10:33:26;98719.47;;;1.19;87.06
66430;BME280;53242;51.694;10.006;2024-01-16T10:35:50;98713.19;;;1.30;86.68
66430;BME280;53242;51.694;10.006;2024-01-16T10:38:20;98709.63;;;1.31;87.02
66430;BME280;53242;51.694;10.006;2024-01-16T10:40:43;98707.91;;;1.40;87.02
66430;BME280;53242;51.694;10.006;2024-01-16T10:43:05;98706.59;;;1.36;87.01
66430;BME280;53242;51.694;10.006;2024-01-16T10:45:28;98707.75;;;1.41;86.97
66430;BME280;53242;51.694;10.006;2024-01-16T10:48:03;98709.91;;;1.54;86.66
66430;BME280;53242;51.694;10.006;2024-01-16T10:50:26;98720.38;;;1.62;86.24
66430;BME280;53242;51.694;10.006;2024-01-16T10:52:49;98708.69;;;1.67;85.32
66430;BME280;53242;51.694;10.006;2024-01-16T10:55:16;98713.34;;;1.97;84.67
66430;BME280;53242;51.694;10.006;2024-01-16T10:57:42;98711.63;;;1.72;85.02
66430;BME280;53242;51.694;10.006;2024-01-16T11:00:05;98705.88;;;2.03;83.59
66430;BME280;53242;51.694;10.006;2024-01-16T11:02:36;98717.34;;;1.84;83.66
66430;BME280;53242;51.694;10.006;2024-01-16T11:05:00;98713.78;;;1.85;83.75
66430;BME280;53242;51.694;10.006;2024-01-16T11:07:23;98709.88;;;1.80;83.67
66430;BME280;53242;51.694;10.006;2024-01-16T11:09:48;98710.06;;;1.87;83.80
66430;BME280;53242;51.694;10.006;2024-01-16T11:12:11;98713.97;;;2.00;84.04
66430;BME280;53242;51.694;10.006;2024-01-16T11:14:39;98714.25;;;1.80;84.79
66430;BME280;53242;51.694;10.006;2024-01-16T11:17:03;98716.03;;;1.79;84.51
66430;BME280;53242;51.694;10.006;2024-01-16T11:19:26;98716.03;;;1.79;84.62
66430;BME280;53242;51.694;10.006;2024-01-16T11:21:50;98716.78;;;1.63;85.26
66430;BME280;53242;51.694;10.006;2024-01-16T11:24:12;98718.81;;;1.78;84.47
66430;BME280;53242;51.694;10.006;2024-01-16T11:26:39;98717.69;;;1.89;84.56
66430;BME280;53242;51.694;10.006;2024-01-16T11:31:50;98706.59;;;1.70;84.74
66430;BME280;53242;51.694;10.006;2024-01-16T11:34:12;98711.97;;;1.77;84.62
66430;BME280;53242;51.694;10.006;2024-01-16T11:36:49;98703.34;;;1.76;84.25
66430;BME280;53242;51.694;10.006;2024-01-16T11:39:18;98699.25;;;1.74;84.30
66430;BME280;53242;51.694;10.006;2024-01-16T11:41:59;98701.84;;;1.66;84.33
66430;BME280;53242;51.694;10.006;2024-01-16T11:44:47;98691.06;;;1.52;84.61
66430;BME280;53242;51.694;10.006;2024-01-16T11:47:18;98696.28;;;1.52;84.14
66430;BME280;53242;51.694;10.006;2024-01-16T11:49:41;98693.22;;;1.65;84.02
66430;BME280;53242;51.694;10.006;2024-01-16T11:52:04;98687.19;;;1.56;84.30
66430;BME280;53242;51.694;10.006;2024-01-16T11:54:26;98687.88;;;1.75;82.65
66430;BME280;53242;51.694;10.006;2024-01-16T12:02:20;98687.97;;;1.48;81.07
66430;BME280;53242;51.694;10.006;2024-01-16T12:04:52;98679.81;;;1.43;80.40
66430;BME280;53242;51.694;10.006;2024-01-16T12:07:15;98690.59;;;1.57;80.47
66430;BME280;53242;51.694;10.006;2024-01-16T12:09:38;98691.09;;;1.60;79.88
66430;BME280;53242;51.694;10.006;2024-01-16T12:12:01;98688.84;;;1.66;79.26
66430;BME280;53242;51.694;10.006;2024-01-16T12:14:24;98686.22;;;1.57;78.54
66430;BME280;53242;51.694;10.006;2024-01-16T12:16:46;98688.03;;;1.65;77.55
66430;BME280;53242;51.694;10.006;2024-01-16T12:19:09;98679.41;;;1.64;77.98
66430;BME280;53242;51.694;10.006;2024-01-16T12:21:34;98687.38;;;1.71;77.57
66430;BME280;53242;51.694;10.006;2024-01-16T12:23:56;98684.94;;;1.70;76.87
66430;BME280;53242;51.694;10.006;2024-01-16T12:26:20;98687.00;;;1.58;76.85
66430;BME280;53242;51.694;10.006;2024-01-16T12:28:42;98689.50;;;1.68;77.00
66430;BME280;53242;51.694;10.006;2024-01-16T12:31:05;98689.09;;;1.54;77.34
66430;BME280;53242;51.694;10.006;2024-01-16T12:33:27;98693.69;;;1.60;76.97
66430;BME280;53242;51.694;10.006;2024-01-16T12:35:50;98690.91;;;1.54;77.07
66430;BME280;53242;51.694;10.006;2024-01-16T12:38:13;98690.13;;;1.61;76.14
66430;BME280;53242;51.694;10.006;2024-01-16T12:40:37;98684.59;;;1.64;75.69
66430;BME280;53242;51.694;10.006;2024-01-16T12:43:01;98683.91;;;1.54;74.98
66430;BME280;53242;51.694;10.006;2024-01-16T12:45:23;98679.06;;;1.59;74.42
66430;BME280;53242;51.694;10.006;2024-01-16T12:47:55;98673.22;;;1.57;73.74
66430;BME280;53242;51.694;10.006;2024-01-16T12:50:21;98670.59;;;1.57;74.11